sensor_id;sensor_type;location;lat;lon;timestamp;pressure;altitude;pressure_sealevel;temperature
64296;BMP280;51082;38.236;15.432;2022-10-30T00:00:19;102121.22;;;17.56
64296;BMP280;51082;38.236;15.432;2022-10-30T00:01:20;102115.38;;;17.54
64296;BMP280;51082;38.236;15.432;2022-10-30T00:02:22;102120.81;;;17.52
64296;BMP280;51082;38.236;15.432;2022-10-30T00:03:23;102116.38;;;17.53
64296;BMP280;51082;38.236;15.432;2022-10-30T00:04:25;102120.00;;;17.52
64296;BMP280;51082;38.236;15.432;2022-10-30T00:05:27;102109.91;;;17.48
64296;BMP280;51082;38.236;15.432;2022-10-30T00:06:29;102120.00;;;17.52
64296;BMP280;51082;38.236;15.432;2022-10-30T00:07:30;102116.56;;;17.51
64296;BMP280;51082;38.236;15.432;2022-10-30T00:08:32;102112.53;;;17.48
64296;BMP280;51082;38.236;15.432;2022-10-30T00:09:33;102106.47;;;17.48
64296;BMP280;51082;38.236;15.432;2022-10-30T00:10:36;102107.44;;;17.47
64296;BMP280;51082;38.236;15.432;2022-10-30T00:11:37;102104.19;;;17.45
64296;BMP280;51082;38.236;15.432;2022-10-30T00:12:39;102112.91;;;17.45
64296;BMP280;51082;38.236;15.432;2022-10-30T00:13:41;102112.31;;;17.43
64296;BMP280;51082;38.236;15.432;2022-10-30T00:14:43;102107.88;;;17.44
64296;BMP280;51082;38.236;15.432;2022-10-30T00:15:50;102102.63;;;17.44
64296;BMP280;51082;38.236;15.432;2022-10-30T00:16:52;102106.44;;;17.41
64296;BMP280;51082;38.236;15.432;2022-10-30T00:17:54;102109.88;;;17.42
64296;BMP280;51082;38.236;15.432;2022-10-30T00:18:56;102109.06;;;17.41
64296;BMP280;51082;38.236;15.432;2022-10-30T00:19:57;102104.41;;;17.43
64296;BMP280;51082;38.236;15.432;2022-10-30T00:21:03;102109.06;;;17.41
64296;BMP280;51082;38.236;15.432;2022-10-30T00:22:04;102106.06;;;17.44
64296;BMP280;51082;38.236;15.432;2022-10-30T00:23:07;102101.19;;;17.48
64296;BMP280;51082;38.236;15.432;2022-10-30T00:24:08;102098.56;;;17.48
64296;BMP280;51082;38.236;15.432;2022-10-30T00:25:11;102091.44;;;17.55
64296;BMP280;51082;38.236;15.432;2022-10-30T00:26:12;102095.31;;;17.53
64296;BMP280;51082;38.236;15.432;2022-10-30T00:27:14;102097.94;;;17.53
64296;BMP280;51082;38.236;15.432;2022-10-30T00:28:15;102100.59;;;17.53
64296;BMP280;51082;38.236;15.432;2022-10-30T00:29:18;102106.22;;;17.49
64296;BMP280;51082;38.236;15.432;2022-10-30T00:30:19;102103.38;;;17.51
64296;BMP280;51082;38.236;15.432;2022-10-30T00:31:23;102096.75;;;17.48
64296;BMP280;51082;38.236;15.432;2022-10-30T00:32:24;102092.69;;;17.53
64296;BMP280;51082;38.236;15.432;2022-10-30T00:33:26;102090.44;;;17.56
64296;BMP280;51082;38.236;15.432;2022-10-30T00:34:27;102085.56;;;17.60
64296;BMP280;51082;38.236;15.432;2022-10-30T00:35:30;102085.00;;;17.58
64296;BMP280;51082;38.236;15.432;2022-10-30T00:36:31;102094.50;;;17.59
64296;BMP280;51082;38.236;15.432;2022-10-30T00:37:33;102086.59;;;17.59
64296;BMP280;51082;38.236;15.432;2022-10-30T00:38:34;102085.56;;;17.60
64296;BMP280;51082;38.236;15.432;2022-10-30T00:39:37;102087.00;;;17.62
64296;BMP280;51082;38.236;15.432;2022-10-30T00:40:38;102089.03;;;17.67
64296;BMP280;51082;38.236;15.432;2022-10-30T00:41:40;102081.72;;;17.69
64296;BMP280;51082;38.236;15.432;2022-10-30T00:42:41;102091.22;;;17.70
64296;BMP280;51082;38.236;15.432;2022-10-30T00:43:44;102093.28;;;17.68
64296;BMP280;51082;38.236;15.432;2022-10-30T00:44:46;102091.66;;;17.67
64296;BMP280;51082;38.236;15.432;2022-10-30T00:45:48;102092.06;;;17.64
64296;BMP280;51082;38.236;15.432;2022-10-30T00:46:51;102086.81;;;17.64
64296;BMP280;51082;38.236;15.432;2022-10-30T00:47:54;102081.34;;;17.59
64296;BMP280;51082;38.236;15.432;2022-10-30T00:48:56;102086.59;;;17.59
64296;BMP280;51082;38.236;15.432;2022-10-30T00:50:00;102087.63;;;17.58
64296;BMP280;51082;38.236;15.432;2022-10-30T00:51:03;102087.78;;;17.56
64296;BMP280;51082;38.236;15.432;2022-10-30T00:52:06;102092.69;;;17.53
64296;BMP280;51082;38.236;15.432;2022-10-30T00:53:09;102094.47;;;17.52
64296;BMP280;51082;38.236;15.432;2022-10-30T00:54:13;102085.59;;;17.53
64296;BMP280;51082;38.236;15.432;2022-10-30T00:55:16;102092.88;;;17.51
64296;BMP280;51082;38.236;15.432;2022-10-30T00:56:20;102089.41;;;17.51
64296;BMP280;51082;38.236;15.432;2022-10-30T00:57:21;102082.31;;;17.51
64296;BMP280;51082;38.236;15.432;2022-10-30T00:58:26;102080.50;;;17.52
64296;BMP280;51082;38.236;15.432;2022-10-30T00:59:29;102085.59;;;17.53
64296;BMP280;51082;38.236;15.432;2022-10-30T01:00:32;102079.53;;;17.53
64296;BMP280;51082;38.236;15.432;2022-10-30T01:01:37;102075.88;;;17.54
64296;BMP280;51082;38.236;15.432;2022-10-30T01:02:41;102080.09;;;17.55
64296;BMP280;51082;38.236;15.432;2022-10-30T01:03:42;102077.88;;;17.52
64296;BMP280;51082;38.236;15.432;2022-10-30T01:04:44;102076.25;;;17.51
64296;BMP280;51082;38.236;15.432;2022-10-30T01:05:46;102081.16;;;17.54
64296;BMP280;51082;38.236;15.432;2022-10-30T01:06:50;102080.09;;;17.55
64296;BMP280;51082;38.236;15.432;2022-10-30T01:07:52;102078.91;;;17.57
64296;BMP280;51082;38.236;15.432;2022-10-30T01:08:54;102079.09;;;17.56
64296;BMP280;51082;38.236;15.432;2022-10-30T01:09:55;102077.47;;;17.55
64296;BMP280;51082;38.236;15.432;2022-10-30T01:10:58;102075.88;;;17.54
64296;BMP280;51082;38.236;15.432;2022-10-30T01:11:59;102080.50;;;17.52
64296;BMP280;51082;38.236;15.432;2022-10-30T01:13:01;102077.88;;;17.52
64296;BMP280;51082;38.236;15.432;2022-10-30T01:14:03;102071.63;;;17.53
64296;BMP280;51082;38.236;15.432;2022-10-30T01:15:07;102072.59;;;17.52
64296;BMP280;51082;38.236;15.432;2022-10-30T01:16:13;102071.41;;;17.54
64296;BMP280;51082;38.236;15.432;2022-10-30T01:17:25;102063.72;;;17.53
64296;BMP280;51082;38.236;15.432;2022-10-30T01:18:31;102065.34;;;17.54
64296;BMP280;51082;38.236;15.432;2022-10-30T01:19:38;102066.34;;;17.53
64296;BMP280;51082;38.236;15.432;2022-10-30T01:20:46;102067.97;;;17.54
64296;BMP280;51082;38.236;15.432;2022-10-30T01:21:57;102064.91;;;17.57
64296;BMP280;51082;38.236;15.432;2022-10-30T01:23:04;102068.56;;;17.56
64296;BMP280;51082;38.236;15.432;2022-10-30T01:24:12;102067.75;;;17.55
64296;BMP280;51082;38.236;15.432;2022-10-30T01:25:19;102065.34;;;17.54
64296;BMP280;51082;38.236;15.432;2022-10-30T01:26:25;102064.91;;;17.57
64296;BMP280;51082;38.236;15.432;2022-10-30T01:27:34;102064.53;;;17.53
64296;BMP280;51082;38.236;15.432;2022-10-30T01:28:42;102066.56;;;17.58
64296;BMP280;51082;38.236;15.432;2022-10-30T01:29:49;102059.84;;;17.55
64296;BMP280;51082;38.236;15.432;2022-10-30T01:30:57;102062.72;;;17.54
64296;BMP280;51082;38.236;15.432;2022-10-30T01:32:07;102055.81;;;17.53
64296;BMP280;51082;38.236;15.432;2022-10-30T01:33:18;102052.56;;;17.51
64296;BMP280;51082;38.236;15.432;2022-10-30T01:34:25;102052.97;;;17.47
64296;BMP280;51082;38.236;15.432;2022-10-30T01:35:33;102044.25;;;17.47
64296;BMP280;51082;38.236;15.432;2022-10-30T01:36:39;102054.16;;;17.52
64296;BMP280;51082;38.236;15.432;2022-10-30T01:37:44;102044.06;;;17.48
64296;BMP280;51082;38.236;15.432;2022-10-30T01:38:48;102042.44;;;17.47
64296;BMP280;51082;38.236;15.432;2022-10-30T01:39:51;102042.88;;;17.44
64296;BMP280;51082;38.236;15.432;2022-10-30T01:40:53;102042.63;;;17.46
64296;BMP280;51082;38.236;15.432;2022-10-30T01:41:55;102045.91;;;17.48
64296;BMP280;51082;38.236;15.432;2022-10-30T01:42:57;102039.00;;;17.54
64296;BMP280;51082;38.236;15.432;2022-10-30T01:44:00;102043.03;;;17.49
64296;BMP280;51082;38.236;15.432;2022-10-30T01:45:02;102037.16;;;17.47
64296;BMP280;51082;38.236;15.432;2022-10-30T01:46:10;102033.91;;;17.52
64296;BMP280;51082;38.236;15.432;2022-10-30T01:47:19;102036.75;;;17.51
64296;BMP280;51082;38.236;15.432;2022-10-30T01:48:27;102034.34;;;17.49
64296;BMP280;51082;38.236;15.432;2022-10-30T01:49:42;102037.78;;;17.49
64296;BMP280;51082;38.236;15.432;2022-10-30T01:50:51;102034.53;;;17.47
64296;BMP280;51082;38.236;15.432;2022-10-30T01:51:57;102027.47;;;17.48
64296;BMP280;51082;38.236;15.432;2022-10-30T01:53:03;102027.84;;;17.45
64296;BMP280;51082;38.236;15.432;2022-10-30T01:54:08;102021.97;;;17.43
64296;BMP280;51082;38.236;15.432;2022-10-30T01:55:17;102018.75;;;17.41
64296;BMP280;51082;38.236;15.432;2022-10-30T01:56:25;102023.19;;;17.40
64296;BMP280;51082;38.236;15.432;2022-10-30T01:57:32;102020.38;;;17.42
64296;BMP280;51082;38.236;15.432;2022-10-30T01:58:35;102020.16;;;17.43
64296;BMP280;51082;38.236;15.432;2022-10-30T01:59:41;102026.03;;;17.45
64296;BMP280;51082;38.236;15.432;2022-10-30T02:00:43;102018.13;;;17.45
64296;BMP280;51082;38.236;15.432;2022-10-30T02:01:46;102021.16;;;17.42
64296;BMP280;51082;38.236;15.432;2022-10-30T02:02:48;102017.94;;;17.40
64296;BMP280;51082;38.236;15.432;2022-10-30T02:03:50;102014.91;;;17.43
64296;BMP280;51082;38.236;15.432;2022-10-30T02:04:53;102015.50;;;17.39
64296;BMP280;51082;38.236;15.432;2022-10-30T02:05:55;102012.28;;;17.37
64296;BMP280;51082;38.236;15.432;2022-10-30T02:06:56;102018.34;;;17.37
64296;BMP280;51082;38.236;15.432;2022-10-30T02:07:59;102009.22;;;17.33
64296;BMP280;51082;38.236;15.432;2022-10-30T02:09:01;101999.50;;;17.40
64296;BMP280;51082;38.236;15.432;2022-10-30T02:10:03;102000.56;;;17.39
64296;BMP280;51082;38.236;15.432;2022-10-30T02:11:05;102015.72;;;17.37
64296;BMP280;51082;38.236;15.432;2022-10-30T02:12:07;102006.59;;;17.33
64296;BMP280;51082;38.236;15.432;2022-10-30T02:13:08;102009.84;;;17.29
64296;BMP280;51082;38.236;15.432;2022-10-30T02:14:11;102011.88;;;17.33
64296;BMP280;51082;38.236;15.432;2022-10-30T02:15:13;102009.84;;;17.35
64296;BMP280;51082;38.236;15.432;2022-10-30T02:16:16;102015.50;;;17.32
64296;BMP280;51082;38.236;15.432;2022-10-30T02:17:17;102010.25;;;17.32
64296;BMP280;51082;38.236;15.432;2022-10-30T02:18:19;102004.56;;;17.35
64296;BMP280;51082;38.236;15.432;2022-10-30T02:19:20;102009.63;;;17.37
64296;BMP280;51082;38.236;15.432;2022-10-30T02:20:24;102009.03;;;17.28
64296;BMP280;51082;38.236;15.432;2022-10-30T02:21:25;102007.22;;;17.29
64296;BMP280;51082;38.236;15.432;2022-10-30T02:22:28;102013.09;;;17.31
64296;BMP280;51082;38.236;15.432;2022-10-30T02:23:29;102010.25;;;17.32
64296;BMP280;51082;38.236;15.432;2022-10-30T02:24:32;102009.84;;;17.29
64296;BMP280;51082;38.236;15.432;2022-10-30T02:25:33;102011.25;;;17.31
64296;BMP280;51082;38.236;15.432;2022-10-30T02:26:36;102001.34;;;17.27
64296;BMP280;51082;38.236;15.432;2022-10-30T02:27:37;102005.78;;;17.26
64296;BMP280;51082;38.236;15.432;2022-10-30T02:28:40;102002.56;;;17.24
64296;BMP280;51082;38.236;15.432;2022-10-30T02:29:41;102005.00;;;17.26
64296;BMP280;51082;38.236;15.432;2022-10-30T02:30:43;102006.22;;;17.23
64296;BMP280;51082;38.236;15.432;2022-10-30T02:31:44;102002.56;;;17.24
64296;BMP280;51082;38.236;15.432;2022-10-30T02:32:46;102001.94;;;17.22
64296;BMP280;51082;38.236;15.432;2022-10-30T02:33:47;102006.59;;;17.20
64296;BMP280;51082;38.236;15.432;2022-10-30T02:34:50;102003.38;;;17.18
64296;BMP280;51082;38.236;15.432;2022-10-30T02:35:52;102007.38;;;17.21
64296;BMP280;51082;38.236;15.432;2022-10-30T02:36:55;102002.34;;;17.19
64296;BMP280;51082;38.236;15.432;2022-10-30T02:37:56;102001.75;;;17.17
64296;BMP280;51082;38.236;15.432;2022-10-30T02:38:58;102000.91;;;17.16
64296;BMP280;51082;38.236;15.432;2022-10-30T02:40:00;101997.09;;;17.19
64296;BMP280;51082;38.236;15.432;2022-10-30T02:41:02;102001.31;;;17.20
64296;BMP280;51082;38.236;15.432;2022-10-30T02:42:03;101997.09;;;17.19
64296;BMP280;51082;38.236;15.432;2022-10-30T02:43:05;101997.47;;;17.16
64296;BMP280;51082;38.236;15.432;2022-10-30T02:44:06;102002.38;;;17.12
64296;BMP280;51082;38.236;15.432;2022-10-30T02:45:09;102001.13;;;17.15
64296;BMP280;51082;38.236;15.432;2022-10-30T02:46:11;102000.13;;;17.09
64296;BMP280;51082;38.236;15.432;2022-10-30T02:47:13;102001.16;;;17.08
64296;BMP280;51082;38.236;15.432;2022-10-30T02:48:14;102002.53;;;17.11
64296;BMP280;51082;38.236;15.432;2022-10-30T02:49:16;102002.13;;;17.07
64296;BMP280;51082;38.236;15.432;2022-10-30T02:50:17;101997.31;;;17.04
64296;BMP280;51082;38.236;15.432;2022-10-30T02:51:21;101997.88;;;17.00
64296;BMP280;51082;38.236;15.432;2022-10-30T02:52:22;101994.84;;;17.03
64296;BMP280;51082;38.236;15.432;2022-10-30T02:53:24;102002.13;;;17.01
64296;BMP280;51082;38.236;15.432;2022-10-30T02:54:25;101992.03;;;17.04
64296;BMP280;51082;38.236;15.432;2022-10-30T02:55:28;102001.31;;;17.07
64296;BMP280;51082;38.236;15.432;2022-10-30T02:56:29;102002.13;;;17.01
64296;BMP280;51082;38.236;15.432;2022-10-30T02:57:31;102001.13;;;17.02
64296;BMP280;51082;38.236;15.432;2022-10-30T02:58:33;101997.47;;;16.96
64296;BMP280;51082;38.236;15.432;2022-10-30T02:59:35;101996.47;;;16.97
64296;BMP280;51082;38.236;15.432;2022-10-30T03:00:37;101993.44;;;17.00
64296;BMP280;51082;38.236;15.432;2022-10-30T03:01:39;101998.09;;;16.98
64296;BMP280;51082;38.236;15.432;2022-10-30T03:02:40;102002.53;;;16.98
64296;BMP280;51082;38.236;15.432;2022-10-30T03:03:42;101996.66;;;16.96
64296;BMP280;51082;38.236;15.432;2022-10-30T03:04:43;101995.44;;;16.92
64296;BMP280;51082;38.236;15.432;2022-10-30T03:05:46;101991.00;;;16.85
64296;BMP280;51082;38.236;15.432;2022-10-30T03:06:48;102002.69;;;16.90
64296;BMP280;51082;38.236;15.432;2022-10-30T03:07:50;102003.34;;;16.92
64296;BMP280;51082;38.236;15.432;2022-10-30T03:08:52;102002.13;;;16.88
64296;BMP280;51082;38.236;15.432;2022-10-30T03:09:54;102004.13;;;16.85
64296;BMP280;51082;38.236;15.432;2022-10-30T03:10:58;102000.50;;;16.87
64296;BMP280;51082;38.236;15.432;2022-10-30T03:12:01;102000.66;;;16.85
64296;BMP280;51082;38.236;15.432;2022-10-30T03:13:02;102001.28;;;16.80
64296;BMP280;51082;38.236;15.432;2022-10-30T03:14:04;102004.53;;;16.82
64296;BMP280;51082;38.236;15.432;2022-10-30T03:15:06;102006.78;;;16.85
64296;BMP280;51082;38.236;15.432;2022-10-30T03:16:09;102010.63;;;16.83
64296;BMP280;51082;38.236;15.432;2022-10-30T03:17:10;102003.91;;;16.80
64296;BMP280;51082;38.236;15.432;2022-10-30T03:18:13;102012.22;;;16.77
64296;BMP280;51082;38.236;15.432;2022-10-30T03:19:14;102012.22;;;16.77
64296;BMP280;51082;38.236;15.432;2022-10-30T03:20:16;102012.59;;;16.74
64296;BMP280;51082;38.236;15.432;2022-10-30T03:21:18;102015.44;;;16.79
64296;BMP280;51082;38.236;15.432;2022-10-30T03:22:22;102008.59;;;16.78
64296;BMP280;51082;38.236;15.432;2022-10-30T03:23:23;102011.78;;;16.80
64296;BMP280;51082;38.236;15.432;2022-10-30T03:24:25;102008.59;;;16.78
64296;BMP280;51082;38.236;15.432;2022-10-30T03:25:28;102008.59;;;16.78
64296;BMP280;51082;38.236;15.432;2022-10-30T03:26:29;102011.59;;;16.75
64296;BMP280;51082;38.236;15.432;2022-10-30T03:27:31;102002.06;;;16.74
64296;BMP280;51082;38.236;15.432;2022-10-30T03:28:32;102010.38;;;16.71
64296;BMP280;51082;38.236;15.432;2022-10-30T03:29:34;102011.59;;;16.75
64296;BMP280;51082;38.236;15.432;2022-10-30T03:30:36;102008.16;;;16.75
64296;BMP280;51082;38.236;15.432;2022-10-30T03:31:38;102015.63;;;16.71
64296;BMP280;51082;38.236;15.432;2022-10-30T03:32:39;102013.00;;;16.71
64296;BMP280;51082;38.236;15.432;2022-10-30T03:33:41;102013.44;;;16.68
64296;BMP280;51082;38.236;15.432;2022-10-30T03:34:43;102012.00;;;16.72
64296;BMP280;51082;38.236;15.432;2022-10-30T03:35:45;102011.00;;;16.73
64296;BMP280;51082;38.236;15.432;2022-10-30T03:36:46;102016.63;;;16.70
64296;BMP280;51082;38.236;15.432;2022-10-30T03:37:50;102019.47;;;16.75
64296;BMP280;51082;38.236;15.432;2022-10-30T03:38:51;102012.59;;;16.74
64296;BMP280;51082;38.236;15.432;2022-10-30T03:39:53;102017.84;;;16.74
64296;BMP280;51082;38.236;15.432;2022-10-30T03:40:54;102017.28;;;16.72
64296;BMP280;51082;38.236;15.432;2022-10-30T03:41:56;102017.44;;;16.71
64296;BMP280;51082;38.236;15.432;2022-10-30T03:42:58;102011.00;;;16.73
64296;BMP280;51082;38.236;15.432;2022-10-30T03:44:00;102019.25;;;16.70
64296;BMP280;51082;38.236;15.432;2022-10-30T03:45:01;102016.22;;;16.67
64296;BMP280;51082;38.236;15.432;2022-10-30T03:46:03;102016.63;;;16.64
64296;BMP280;51082;38.236;15.432;2022-10-30T03:47:05;102019.66;;;16.67
64296;BMP280;51082;38.236;15.432;2022-10-30T03:48:07;102014.19;;;16.62
64296;BMP280;51082;38.236;15.432;2022-10-30T03:49:08;102019.06;;;16.65
64296;BMP280;51082;38.236;15.432;2022-10-30T03:50:10;102017.88;;;16.68
64296;BMP280;51082;38.236;15.432;2022-10-30T03:51:11;102021.09;;;16.63
64296;BMP280;51082;38.236;15.432;2022-10-30T03:52:14;102020.66;;;16.66
64296;BMP280;51082;38.236;15.432;2022-10-30T03:53:17;102025.75;;;16.68
64296;BMP280;51082;38.236;15.432;2022-10-30T03:54:18;102020.66;;;16.66
64296;BMP280;51082;38.236;15.432;2022-10-30T03:55:21;102020.28;;;16.69
64296;BMP280;51082;38.236;15.432;2022-10-30T03:56:22;102023.31;;;16.66
64296;BMP280;51082;38.236;15.432;2022-10-30T03:57:24;102028.78;;;16.71
64296;BMP280;51082;38.236;15.432;2022-10-30T03:58:26;102026.16;;;16.71
64296;BMP280;51082;38.236;15.432;2022-10-30T03:59:28;102023.31;;;16.66
64296;BMP280;51082;38.236;15.432;2022-10-30T04:00:29;102024.31;;;16.65
64296;BMP280;51082;38.236;15.432;2022-10-30T04:01:31;102015.41;;;16.60
64296;BMP280;51082;38.236;15.432;2022-10-30T04:02:32;102026.53;;;16.62
64296;BMP280;51082;38.236;15.432;2022-10-30T04:03:35;102023.09;;;16.61
64296;BMP280;51082;38.236;15.432;2022-10-30T04:04:36;102019.44;;;16.62
64296;BMP280;51082;38.236;15.432;2022-10-30T04:05:38;102024.72;;;16.62
64296;BMP280;51082;38.236;15.432;2022-10-30T04:06:39;102032.19;;;16.65
64296;BMP280;51082;38.236;15.432;2022-10-30T04:07:41;102026.53;;;16.62
64296;BMP280;51082;38.236;15.432;2022-10-30T04:08:44;102018.84;;;16.60
64296;BMP280;51082;38.236;15.432;2022-10-30T04:09:46;102031.63;;;16.63
64296;BMP280;51082;38.236;15.432;2022-10-30T04:10:47;102028.34;;;16.61
64296;BMP280;51082;38.236;15.432;2022-10-30T04:11:50;102035.44;;;16.61
64296;BMP280;51082;38.236;15.432;2022-10-30T04:12:51;102031.97;;;16.60
64296;BMP280;51082;38.236;15.432;2022-10-30T04:13:54;102026.34;;;16.63
64296;BMP280;51082;38.236;15.432;2022-10-30T04:14:56;102030.38;;;16.59
64296;BMP280;51082;38.236;15.432;2022-10-30T04:15:57;102028.34;;;16.61
64296;BMP280;51082;38.236;15.432;2022-10-30T04:16:59;102026.34;;;16.63
64296;BMP280;51082;38.236;15.432;2022-10-30T04:18:00;102025.94;;;16.66
64296;BMP280;51082;38.236;15.432;2022-10-30T04:19:03;102030.19;;;16.67
64296;BMP280;51082;38.236;15.432;2022-10-30T04:20:06;102029.97;;;16.62
64296;BMP280;51082;38.236;15.432;2022-10-30T04:21:07;102027.75;;;16.59
64296;BMP280;51082;38.236;15.432;2022-10-30T04:22:09;102025.72;;;16.61
64296;BMP280;51082;38.236;15.432;2022-10-30T04:23:12;102024.72;;;16.62
64296;BMP280;51082;38.236;15.432;2022-10-30T04:24:16;102028.34;;;16.61
64296;BMP280;51082;38.236;15.432;2022-10-30T04:25:18;102030.19;;;16.67
64296;BMP280;51082;38.236;15.432;2022-10-30T04:26:20;102032.59;;;16.69
64296;BMP280;51082;38.236;15.432;2022-10-30T04:27:21;102026.94;;;16.65
64296;BMP280;51082;38.236;15.432;2022-10-30T04:28:23;102027.34;;;16.62
64296;BMP280;51082;38.236;15.432;2022-10-30T04:29:26;102023.09;;;16.61
64296;BMP280;51082;38.236;15.432;2022-10-30T04:30:27;102029.00;;;16.63
64296;BMP280;51082;38.236;15.432;2022-10-30T04:31:33;102030.78;;;16.69
64296;BMP280;51082;38.236;15.432;2022-10-30T04:32:34;102026.56;;;16.68
64296;BMP280;51082;38.236;15.432;2022-10-30T04:33:37;102024.53;;;16.70
64296;BMP280;51082;38.236;15.432;2022-10-30T04:34:39;102031.41;;;16.71
64296;BMP280;51082;38.236;15.432;2022-10-30T04:35:40;102023.13;;;16.68
64296;BMP280;51082;38.236;15.432;2022-10-30T04:36:42;102022.50;;;16.66
64296;BMP280;51082;38.236;15.432;2022-10-30T04:37:50;102018.84;;;16.67
64296;BMP280;51082;38.236;15.432;2022-10-30T04:38:51;102024.50;;;16.64
64296;BMP280;51082;38.236;15.432;2022-10-30T04:39:55;102023.09;;;16.61
64296;BMP280;51082;38.236;15.432;2022-10-30T04:40:56;102024.72;;;16.62
64296;BMP280;51082;38.236;15.432;2022-10-30T04:41:58;102021.09;;;16.63
64296;BMP280;51082;38.236;15.432;2022-10-30T04:43:00;102018.25;;;16.65
64296;BMP280;51082;38.236;15.432;2022-10-30T04:44:03;102029.97;;;16.62
64296;BMP280;51082;38.236;15.432;2022-10-30T04:45:06;102021.47;;;16.60
64296;BMP280;51082;38.236;15.432;2022-10-30T04:46:07;102025.09;;;16.59
64296;BMP280;51082;38.236;15.432;2022-10-30T04:47:09;102033.97;;;16.58
64296;BMP280;51082;38.236;15.432;2022-10-30T04:48:11;102032.38;;;16.57
64296;BMP280;51082;38.236;15.432;2022-10-30T04:49:13;102036.44;;;16.60
64296;BMP280;51082;38.236;15.432;2022-10-30T04:50:15;102031.97;;;16.60
64296;BMP280;51082;38.236;15.432;2022-10-30T04:51:17;102034.41;;;16.62
64296;BMP280;51082;38.236;15.432;2022-10-30T04:52:18;102035.22;;;16.62
64296;BMP280;51082;38.236;15.432;2022-10-30T04:53:21;102032.59;;;16.62
64296;BMP280;51082;38.236;15.432;2022-10-30T04:54:22;102035.22;;;16.62
64296;BMP280;51082;38.236;15.432;2022-10-30T04:55:25;102028.16;;;16.63
64296;BMP280;51082;38.236;15.432;2022-10-30T04:56:27;102036.88;;;16.63
64296;BMP280;51082;38.236;15.432;2022-10-30T04:57:29;102029.56;;;16.65
64296;BMP280;51082;38.236;15.432;2022-10-30T04:58:31;102031.84;;;16.68
64296;BMP280;51082;38.236;15.432;2022-10-30T04:59:33;102023.94;;;16.68
64296;BMP280;51082;38.236;15.432;2022-10-30T05:00:34;102031.84;;;16.68
64296;BMP280;51082;38.236;15.432;2022-10-30T05:01:37;102032.59;;;16.69
64296;BMP280;51082;38.236;15.432;2022-10-30T05:02:38;102027.56;;;16.67
64296;BMP280;51082;38.236;15.432;2022-10-30T05:03:40;102030.19;;;16.67
64296;BMP280;51082;38.236;15.432;2022-10-30T05:04:41;102025.94;;;16.66
64296;BMP280;51082;38.236;15.432;2022-10-30T05:05:44;102031.84;;;16.68
64296;BMP280;51082;38.236;15.432;2022-10-30T05:06:45;102032.41;;;16.70
64296;BMP280;51082;38.236;15.432;2022-10-30T05:07:47;102027.78;;;16.72
64296;BMP280;51082;38.236;15.432;2022-10-30T05:08:48;102030.44;;;16.72
64296;BMP280;51082;38.236;15.432;2022-10-30T05:09:51;102031.81;;;16.75
64296;BMP280;51082;38.236;15.432;2022-10-30T05:10:53;102032.44;;;16.77
64296;BMP280;51082;38.236;15.432;2022-10-30T05:11:56;102033.25;;;16.77
64296;BMP280;51082;38.236;15.432;2022-10-30T05:12:57;102028.00;;;16.77
64296;BMP280;51082;38.236;15.432;2022-10-30T05:14:00;102032.25;;;16.78
64296;BMP280;51082;38.236;15.432;2022-10-30T05:15:01;102036.47;;;16.79
64296;BMP280;51082;38.236;15.432;2022-10-30T05:16:03;102032.06;;;16.87
64296;BMP280;51082;38.236;15.432;2022-10-30T05:17:05;102025.56;;;16.89
64296;BMP280;51082;38.236;15.432;2022-10-30T05:18:07;102025.78;;;16.88
64296;BMP280;51082;38.236;15.432;2022-10-30T05:19:08;102032.47;;;16.90
64296;BMP280;51082;38.236;15.432;2022-10-30T05:20:10;102027.00;;;16.92
64296;BMP280;51082;38.236;15.432;2022-10-30T05:21:11;102029.44;;;16.93
64296;BMP280;51082;38.236;15.432;2022-10-30T05:22:14;102021.97;;;16.97
64296;BMP280;51082;38.236;15.432;2022-10-30T05:23:15;102029.25;;;17.01
64296;BMP280;51082;38.236;15.432;2022-10-30T05:24:17;102024.78;;;17.02
64296;BMP280;51082;38.236;15.432;2022-10-30T05:25:18;102031.91;;;17.08
64296;BMP280;51082;38.236;15.432;2022-10-30T05:26:22;102031.28;;;17.06
64296;BMP280;51082;38.236;15.432;2022-10-30T05:27:23;102032.91;;;17.07
64296;BMP280;51082;38.236;15.432;2022-10-30T05:28:25;102036.16;;;17.09
64296;BMP280;51082;38.236;15.432;2022-10-30T05:29:26;102030.47;;;17.12
64296;BMP280;51082;38.236;15.432;2022-10-30T05:30:29;102027.22;;;17.10
64296;BMP280;51082;38.236;15.432;2022-10-30T05:31:31;102035.72;;;17.12
64296;BMP280;51082;38.236;15.432;2022-10-30T05:32:33;102033.50;;;17.15
64296;BMP280;51082;38.236;15.432;2022-10-30T05:33:34;102042.22;;;17.16
64296;BMP280;51082;38.236;15.432;2022-10-30T05:34:36;102039.22;;;17.19
64296;BMP280;51082;38.236;15.432;2022-10-30T05:35:39;102036.97;;;17.23
64296;BMP280;51082;38.236;15.432;2022-10-30T05:36:40;102037.59;;;17.18
64296;BMP280;51082;38.236;15.432;2022-10-30T05:37:42;102041.41;;;17.15
64296;BMP280;51082;38.236;15.432;2022-10-30T05:38:43;102043.44;;;17.13
64296;BMP280;51082;38.236;15.432;2022-10-30T05:39:46;102040.59;;;17.15
64296;BMP280;51082;38.236;15.432;2022-10-30T05:40:47;102034.75;;;17.13
64296;BMP280;51082;38.236;15.432;2022-10-30T05:41:51;102041.63;;;17.14
64296;BMP280;51082;38.236;15.432;2022-10-30T05:42:52;102043.03;;;17.16
64296;BMP280;51082;38.236;15.432;2022-10-30T05:43:54;102041.84;;;17.19
64296;BMP280;51082;38.236;15.432;2022-10-30T05:44:55;102042.84;;;17.18
64296;BMP280;51082;38.236;15.432;2022-10-30T05:45:58;102048.72;;;17.13
64296;BMP280;51082;38.236;15.432;2022-10-30T05:46:59;102045.84;;;17.15
64296;BMP280;51082;38.236;15.432;2022-10-30T05:48:02;102054.38;;;17.17
64296;BMP280;51082;38.236;15.432;2022-10-30T05:49:03;102049.50;;;17.21
64296;BMP280;51082;38.236;15.432;2022-10-30T05:50:06;102038.59;;;17.24